createdAt,value
2018-04-16T00:00:02.511Z,13.1
2018-04-16T00:15:02.786Z,12.9
2018-04-16T00:30:03.117Z,12.8
2018-04-16T00:45:02.511Z,12.9
2018-04-16T01:00:02.834Z,12.9
2018-04-16T01:15:03.095Z,12.9
2018-04-16T01:30:02.612Z,12.8
2018-04-16T01:45:02.839Z,12.7
2018-04-16T02:00:03.111Z,12.7
2018-04-16T02:15:02.533Z,12.8
2018-04-16T02:30:02.872Z,12.7
2018-04-16T02:45:03.335Z,12.6
2018-04-16T03:00:02.622Z,12.6
2018-04-16T03:15:02.808Z,12.5
2018-04-16T03:30:03.147Z,12.4
2018-04-16T03:45:02.480Z,12.4
2018-04-16T04:00:02.732Z,12.5
2018-04-16T04:15:02.935Z,12.4
2018-04-16T04:30:02.302Z,12.2
2018-04-16T04:45:02.534Z,12.1
2018-04-16T05:00:02.809Z,11.9
2018-04-16T05:15:03.028Z,11.8
2018-04-16T05:30:02.558Z,11.8
2018-04-16T05:45:02.816Z,11.7
2018-04-16T06:00:03.056Z,11.6
2018-04-16T06:15:02.436Z,11.6
2018-04-16T06:30:03.004Z,11.6
2018-04-16T06:45:02.361Z,11.7
2018-04-16T07:00:02.685Z,11.8
2018-04-16T07:15:03.094Z,11.9
2018-04-16T07:30:02.401Z,12
2018-04-16T07:45:02.711Z,12.1
2018-04-16T08:00:02.949Z,12.1
2018-04-16T08:15:02.304Z,12.4
2018-04-16T08:30:02.697Z,12.6
2018-04-16T08:45:02.921Z,13
2018-04-16T09:00:03.193Z,13.6
2018-04-16T09:15:02.553Z,14.2
2018-04-16T09:30:02.939Z,14.3
2018-04-16T09:45:03.212Z,14.4
2018-04-16T10:00:02.598Z,14.2
2018-04-16T10:15:02.809Z,14.4
2018-04-16T10:30:03.185Z,14.6
2018-04-16T10:45:02.487Z,14.9
2018-04-16T11:00:02.706Z,15.3
2018-04-16T11:15:03.021Z,15.5
2018-04-16T11:30:02.484Z,16.1
2018-04-16T11:45:02.785Z,15.6
2018-04-16T12:00:03.001Z,15.8
2018-04-16T12:15:02.342Z,16.2
2018-04-16T12:30:02.776Z,16.4
2018-04-16T12:45:03.019Z,16.5
2018-04-16T13:00:02.405Z,16.8
2018-04-16T13:15:02.686Z,16.7
2018-04-16T13:30:03.084Z,16.7
2018-04-16T13:45:02.383Z,16.9
2018-04-16T14:00:02.608Z,16.8
2018-04-16T14:15:02.997Z,16.9
2018-04-16T14:30:02.390Z,16.8
2018-04-16T14:45:02.668Z,17
2018-04-16T15:00:02.917Z,17.5
2018-04-16T15:15:03.215Z,17.1
2018-04-16T15:30:02.629Z,16.7
2018-04-16T15:45:02.956Z,15.9
2018-04-16T16:00:02.212Z,15
2018-04-16T16:15:02.540Z,14.3
2018-04-16T16:30:02.916Z,14.3
2018-04-16T16:45:03.197Z,14.1
2018-04-16T17:00:02.458Z,13.8
2018-04-16T17:15:02.706Z,13.3
2018-04-16T17:30:03.030Z,13.2
2018-04-16T17:45:02.275Z,13.1
2018-04-16T18:00:02.620Z,13.1
2018-04-16T18:15:03.029Z,13.1
2018-04-16T18:30:02.431Z,12.9
2018-04-16T18:45:02.741Z,12.8
2018-04-16T19:00:02.992Z,12.8
2018-04-16T19:15:02.363Z,12.4
2018-04-16T19:30:02.774Z,12.5
2018-04-16T19:45:03.114Z,12.4
2018-04-16T20:00:02.453Z,12.4
2018-04-16T20:15:02.779Z,12.1
2018-04-16T20:30:03.153Z,11.8
2018-04-16T20:45:02.394Z,11.4
2018-04-16T21:00:02.675Z,11
2018-04-16T21:15:02.921Z,10.9
2018-04-16T21:30:02.324Z,10.8
2018-04-16T21:45:02.689Z,10.8
2018-04-16T22:00:02.943Z,10.6
2018-04-16T22:15:02.336Z,10.8
2018-04-16T22:30:02.793Z,10.8
2018-04-16T22:45:03.086Z,10.8
2018-04-16T23:00:02.520Z,10.9
2018-04-16T23:15:02.905Z,10.9
2018-04-16T23:30:02.333Z,10.8
2018-04-16T23:45:02.683Z,10.7
